Villanova D'Albenga International Airport LIMG

Flugplatz Daten

Name: Villanova D'Albenga International Airport

Ident: LIMG

Lat: 44,05059814

Long: 8,127429962

Platzhöhe: 148 ft

IataCode: ALL

City: Albenga

Metar

2022/08/13 16:50
LIMG 131650Z 09003KT 020V150 CAVOK 30/10 Q1011

Taf

2022/08/13 12:21
TAF LIMG 131100Z 1312/1412 08010KT 9999 FEW040
BECMG 1317/1319 VRB05KT
BECMG 1409/1411 07012KT
Gewünschte Webcam nicht vorhanden? Dann fügen Sie eine hinzu. Sie wird dann so schnell wie möglich freigeschaltet
Url: Title: